sensor_id;sensor_type;location;lat;lon;timestamp;P1;durP1;ratioP1;P2;durP2;ratioP2
7316;SDS011;3699;51.462;6.696;2022-11-03T00:00:33;9.80;;;3.37;;
7316;SDS011;3699;51.462;6.696;2022-11-03T00:02:59;8.83;;;3.47;;
7316;SDS011;3699;51.462;6.696;2022-11-03T00:05:26;9.43;;;4.63;;
7316;SDS011;3699;51.462;6.696;2022-11-03T00:08:10;14.77;;;4.67;;
7316;SDS011;3699;51.462;6.696;2022-11-03T00:10:38;10.90;;;4.27;;
7316;SDS011;3699;51.462;6.696;2022-11-03T00:13:05;10.87;;;3.60;;
7316;SDS011;3699;51.462;6.696;2022-11-03T00:15:32;13.50;;;3.77;;
7316;SDS011;3699;51.462;6.696;2022-11-03T00:17:58;13.10;;;3.93;;
7316;SDS011;3699;51.462;6.696;2022-11-03T00:20:25;16.53;;;4.80;;
7316;SDS011;3699;51.462;6.696;2022-11-03T00:22:52;15.97;;;3.97;;
7316;SDS011;3699;51.462;6.696;2022-11-03T00:25:18;13.50;;;3.70;;
7316;SDS011;3699;51.462;6.696;2022-11-03T00:27:50;10.17;;;3.47;;
7316;SDS011;3699;51.462;6.696;2022-11-03T00:30:20;12.27;;;3.40;;
7316;SDS011;3699;51.462;6.696;2022-11-03T00:32:46;13.33;;;3.27;;
7316;SDS011;3699;51.462;6.696;2022-11-03T00:35:13;9.60;;;2.90;;
7316;SDS011;3699;51.462;6.696;2022-11-03T00:37:40;10.50;;;3.10;;
7316;SDS011;3699;51.462;6.696;2022-11-03T00:40:07;9.73;;;3.57;;
7316;SDS011;3699;51.462;6.696;2022-11-03T00:42:35;12.20;;;2.80;;
7316;SDS011;3699;51.462;6.696;2022-11-03T00:45:05;8.97;;;3.10;;
7316;SDS011;3699;51.462;6.696;2022-11-03T00:47:33;5.83;;;2.77;;
7316;SDS011;3699;51.462;6.696;2022-11-03T00:50:19;11.63;;;3.37;;
7316;SDS011;3699;51.462;6.696;2022-11-03T00:52:46;7.13;;;3.03;;
7316;SDS011;3699;51.462;6.696;2022-11-03T00:55:13;16.20;;;4.00;;
7316;SDS011;3699;51.462;6.696;2022-11-03T00:57:40;11.90;;;3.27;;
7316;SDS011;3699;51.462;6.696;2022-11-03T01:00:08;16.57;;;4.03;;
7316;SDS011;3699;51.462;6.696;2022-11-03T01:02:36;12.50;;;3.20;;
7316;SDS011;3699;51.462;6.696;2022-11-03T01:05:03;12.27;;;3.57;;
7316;SDS011;3699;51.462;6.696;2022-11-03T01:07:48;7.17;;;3.17;;
7316;SDS011;3699;51.462;6.696;2022-11-03T01:10:15;10.07;;;3.07;;
7316;SDS011;3699;51.462;6.696;2022-11-03T01:12:41;14.07;;;3.20;;
7316;SDS011;3699;51.462;6.696;2022-11-03T01:15:09;14.13;;;3.93;;
7316;SDS011;3699;51.462;6.696;2022-11-03T01:17:36;12.00;;;3.80;;
7316;SDS011;3699;51.462;6.696;2022-11-03T01:20:02;10.77;;;4.53;;
7316;SDS011;3699;51.462;6.696;2022-11-03T01:22:30;8.87;;;3.50;;
7316;SDS011;3699;51.462;6.696;2022-11-03T01:24:56;11.47;;;3.73;;
7316;SDS011;3699;51.462;6.696;2022-11-03T01:27:23;16.67;;;3.73;;
7316;SDS011;3699;51.462;6.696;2022-11-03T01:29:50;12.97;;;3.53;;
7316;SDS011;3699;51.462;6.696;2022-11-03T01:32:18;6.60;;;3.20;;
7316;SDS011;3699;51.462;6.696;2022-11-03T01:34:45;15.00;;;4.47;;
7316;SDS011;3699;51.462;6.696;2022-11-03T01:37:12;14.43;;;5.10;;
7316;SDS011;3699;51.462;6.696;2022-11-03T01:39:38;9.17;;;3.30;;
7316;SDS011;3699;51.462;6.696;2022-11-03T01:42:05;18.10;;;3.80;;
7316;SDS011;3699;51.462;6.696;2022-11-03T01:44:33;10.80;;;3.70;;
7316;SDS011;3699;51.462;6.696;2022-11-03T01:47:14;8.70;;;3.43;;
7316;SDS011;3699;51.462;6.696;2022-11-03T01:49:51;8.67;;;3.40;;
7316;SDS011;3699;51.462;6.696;2022-11-03T01:52:22;16.73;;;4.00;;
7316;SDS011;3699;51.462;6.696;2022-11-03T01:54:54;10.93;;;3.87;;
7316;SDS011;3699;51.462;6.696;2022-11-03T01:57:26;9.73;;;3.77;;
7316;SDS011;3699;51.462;6.696;2022-11-03T01:59:59;9.77;;;3.30;;
7316;SDS011;3699;51.462;6.696;2022-11-03T02:02:28;14.47;;;3.67;;
7316;SDS011;3699;51.462;6.696;2022-11-03T02:04:55;10.83;;;3.30;;
7316;SDS011;3699;51.462;6.696;2022-11-03T02:07:25;12.47;;;3.60;;
7316;SDS011;3699;51.462;6.696;2022-11-03T02:09:58;12.23;;;3.93;;
7316;SDS011;3699;51.462;6.696;2022-11-03T02:12:25;7.83;;;3.53;;
7316;SDS011;3699;51.462;6.696;2022-11-03T02:14:53;13.67;;;3.87;;
7316;SDS011;3699;51.462;6.696;2022-11-03T02:17:23;10.50;;;4.43;;
7316;SDS011;3699;51.462;6.696;2022-11-03T02:19:55;11.67;;;4.50;;
7316;SDS011;3699;51.462;6.696;2022-11-03T02:22:33;14.47;;;4.37;;
7316;SDS011;3699;51.462;6.696;2022-11-03T02:25:13;15.40;;;4.13;;
7316;SDS011;3699;51.462;6.696;2022-11-03T02:27:45;9.53;;;3.73;;
7316;SDS011;3699;51.462;6.696;2022-11-03T02:30:12;14.87;;;3.83;;
7316;SDS011;3699;51.462;6.696;2022-11-03T02:32:41;5.97;;;3.53;;
7316;SDS011;3699;51.462;6.696;2022-11-03T02:35:19;11.73;;;4.60;;
7316;SDS011;3699;51.462;6.696;2022-11-03T02:37:50;9.13;;;3.77;;
7316;SDS011;3699;51.462;6.696;2022-11-03T02:40:22;14.97;;;4.83;;
7316;SDS011;3699;51.462;6.696;2022-11-03T02:42:54;9.93;;;3.87;;
7316;SDS011;3699;51.462;6.696;2022-11-03T02:45:23;15.03;;;3.90;;
7316;SDS011;3699;51.462;6.696;2022-11-03T02:47:52;13.83;;;4.07;;
7316;SDS011;3699;51.462;6.696;2022-11-03T02:50:21;14.00;;;4.20;;
7316;SDS011;3699;51.462;6.696;2022-11-03T02:52:52;19.63;;;5.43;;
7316;SDS011;3699;51.462;6.696;2022-11-03T02:55:20;13.53;;;4.00;;
7316;SDS011;3699;51.462;6.696;2022-11-03T02:57:58;12.97;;;3.87;;
7316;SDS011;3699;51.462;6.696;2022-11-03T03:00:29;20.43;;;4.30;;
7316;SDS011;3699;51.462;6.696;2022-11-03T03:02:58;10.77;;;4.50;;
7316;SDS011;3699;51.462;6.696;2022-11-03T03:05:30;14.87;;;4.33;;
7316;SDS011;3699;51.462;6.696;2022-11-03T03:08:00;8.00;;;3.80;;
7316;SDS011;3699;51.462;6.696;2022-11-03T03:10:30;12.63;;;4.27;;
7316;SDS011;3699;51.462;6.696;2022-11-03T03:13:02;5.97;;;3.30;;
7316;SDS011;3699;51.462;6.696;2022-11-03T03:15:34;13.27;;;3.80;;
7316;SDS011;3699;51.462;6.696;2022-11-03T03:18:08;7.30;;;3.47;;
7316;SDS011;3699;51.462;6.696;2022-11-03T03:20:42;16.03;;;4.17;;
7316;SDS011;3699;51.462;6.696;2022-11-03T03:23:15;9.60;;;3.80;;
7316;SDS011;3699;51.462;6.696;2022-11-03T03:25:46;13.73;;;4.50;;
7316;SDS011;3699;51.462;6.696;2022-11-03T03:28:18;9.97;;;3.70;;
7316;SDS011;3699;51.462;6.696;2022-11-03T03:30:49;12.77;;;4.73;;
7316;SDS011;3699;51.462;6.696;2022-11-03T03:33:19;14.10;;;4.43;;
7316;SDS011;3699;51.462;6.696;2022-11-03T03:35:47;12.23;;;3.97;;
7316;SDS011;3699;51.462;6.696;2022-11-03T03:38:16;12.53;;;4.60;;
7316;SDS011;3699;51.462;6.696;2022-11-03T03:40:46;14.63;;;4.17;;
7316;SDS011;3699;51.462;6.696;2022-11-03T03:43:18;11.67;;;3.90;;
7316;SDS011;3699;51.462;6.696;2022-11-03T03:45:47;12.07;;;4.20;;
7316;SDS011;3699;51.462;6.696;2022-11-03T03:48:17;10.87;;;3.83;;
7316;SDS011;3699;51.462;6.696;2022-11-03T03:50:44;15.13;;;3.93;;
7316;SDS011;3699;51.462;6.696;2022-11-03T03:53:14;11.27;;;3.97;;
7316;SDS011;3699;51.462;6.696;2022-11-03T03:55:43;11.87;;;3.97;;
7316;SDS011;3699;51.462;6.696;2022-11-03T03:58:13;9.33;;;3.63;;
7316;SDS011;3699;51.462;6.696;2022-11-03T04:00:42;12.63;;;4.17;;
7316;SDS011;3699;51.462;6.696;2022-11-03T04:03:12;7.53;;;4.10;;
7316;SDS011;3699;51.462;6.696;2022-11-03T04:05:41;11.17;;;4.40;;
7316;SDS011;3699;51.462;6.696;2022-11-03T04:08:08;15.90;;;4.30;;
7316;SDS011;3699;51.462;6.696;2022-11-03T04:10:36;11.10;;;4.17;;
7316;SDS011;3699;51.462;6.696;2022-11-03T04:13:03;14.97;;;3.90;;
7316;SDS011;3699;51.462;6.696;2022-11-03T04:15:48;6.70;;;3.43;;
7316;SDS011;3699;51.462;6.696;2022-11-03T04:18:33;16.20;;;3.83;;
7316;SDS011;3699;51.462;6.696;2022-11-03T04:21:17;8.73;;;3.80;;
7316;SDS011;3699;51.462;6.696;2022-11-03T04:24:01;13.37;;;4.03;;
7316;SDS011;3699;51.462;6.696;2022-11-03T04:26:28;11.47;;;4.93;;
7316;SDS011;3699;51.462;6.696;2022-11-03T04:28:55;15.77;;;4.93;;
7316;SDS011;3699;51.462;6.696;2022-11-03T04:31:24;13.53;;;4.23;;
7316;SDS011;3699;51.462;6.696;2022-11-03T04:33:52;8.83;;;4.20;;
7316;SDS011;3699;51.462;6.696;2022-11-03T04:36:19;10.53;;;4.30;;
7316;SDS011;3699;51.462;6.696;2022-11-03T04:38:48;9.83;;;3.77;;
7316;SDS011;3699;51.462;6.696;2022-11-03T04:41:16;10.33;;;3.80;;
7316;SDS011;3699;51.462;6.696;2022-11-03T04:43:45;11.33;;;4.07;;
7316;SDS011;3699;51.462;6.696;2022-11-03T04:46:12;15.10;;;3.80;;
7316;SDS011;3699;51.462;6.696;2022-11-03T04:48:42;13.03;;;4.90;;
7316;SDS011;3699;51.462;6.696;2022-11-03T04:51:12;14.10;;;4.50;;
7316;SDS011;3699;51.462;6.696;2022-11-03T04:53:42;14.00;;;5.87;;
7316;SDS011;3699;51.462;6.696;2022-11-03T04:56:12;15.00;;;4.63;;
7316;SDS011;3699;51.462;6.696;2022-11-03T04:58:42;10.87;;;4.00;;
7316;SDS011;3699;51.462;6.696;2022-11-03T05:01:11;13.33;;;4.10;;
7316;SDS011;3699;51.462;6.696;2022-11-03T05:03:39;10.10;;;5.23;;
7316;SDS011;3699;51.462;6.696;2022-11-03T05:06:09;6.77;;;3.43;;
7316;SDS011;3699;51.462;6.696;2022-11-03T05:08:37;15.23;;;4.73;;
7316;SDS011;3699;51.462;6.696;2022-11-03T05:11:08;12.87;;;4.37;;
7316;SDS011;3699;51.462;6.696;2022-11-03T05:13:40;15.00;;;5.27;;
7316;SDS011;3699;51.462;6.696;2022-11-03T05:16:07;15.27;;;5.37;;
7316;SDS011;3699;51.462;6.696;2022-11-03T05:18:34;12.67;;;4.40;;
7316;SDS011;3699;51.462;6.696;2022-11-03T05:21:05;9.97;;;3.73;;
7316;SDS011;3699;51.462;6.696;2022-11-03T05:23:35;17.53;;;4.93;;
7316;SDS011;3699;51.462;6.696;2022-11-03T05:26:05;14.93;;;4.43;;
7316;SDS011;3699;51.462;6.696;2022-11-03T05:28:38;9.03;;;3.50;;
7316;SDS011;3699;51.462;6.696;2022-11-03T05:31:13;10.43;;;3.70;;
7316;SDS011;3699;51.462;6.696;2022-11-03T05:33:45;9.43;;;3.93;;
7316;SDS011;3699;51.462;6.696;2022-11-03T05:36:15;11.97;;;4.10;;
7316;SDS011;3699;51.462;6.696;2022-11-03T05:38:45;10.80;;;4.10;;
7316;SDS011;3699;51.462;6.696;2022-11-03T05:41:13;11.20;;;3.70;;
7316;SDS011;3699;51.462;6.696;2022-11-03T05:43:45;10.37;;;3.60;;
7316;SDS011;3699;51.462;6.696;2022-11-03T05:46:17;16.97;;;4.07;;
7316;SDS011;3699;51.462;6.696;2022-11-03T05:48:43;10.80;;;3.90;;
7316;SDS011;3699;51.462;6.696;2022-11-03T05:51:12;14.90;;;5.07;;
7316;SDS011;3699;51.462;6.696;2022-11-03T05:53:44;14.90;;;3.90;;
7316;SDS011;3699;51.462;6.696;2022-11-03T05:56:15;9.67;;;3.40;;
7316;SDS011;3699;51.462;6.696;2022-11-03T05:58:43;8.70;;;3.83;;
7316;SDS011;3699;51.462;6.696;2022-11-03T06:01:11;12.67;;;4.00;;
7316;SDS011;3699;51.462;6.696;2022-11-03T06:03:42;12.73;;;3.70;;
7316;SDS011;3699;51.462;6.696;2022-11-03T06:06:10;10.60;;;3.57;;
7316;SDS011;3699;51.462;6.696;2022-11-03T06:08:42;14.23;;;3.93;;
7316;SDS011;3699;51.462;6.696;2022-11-03T06:11:13;8.67;;;4.10;;
7316;SDS011;3699;51.462;6.696;2022-11-03T06:13:44;18.63;;;4.97;;
7316;SDS011;3699;51.462;6.696;2022-11-03T06:16:14;9.43;;;3.73;;
7316;SDS011;3699;51.462;6.696;2022-11-03T06:19:00;9.57;;;4.57;;
7316;SDS011;3699;51.462;6.696;2022-11-03T06:21:28;8.43;;;3.83;;
7316;SDS011;3699;51.462;6.696;2022-11-03T06:23:57;13.53;;;3.53;;
7316;SDS011;3699;51.462;6.696;2022-11-03T06:26:24;9.00;;;3.27;;
7316;SDS011;3699;51.462;6.696;2022-11-03T06:28:53;7.33;;;3.20;;
7316;SDS011;3699;51.462;6.696;2022-11-03T06:31:21;10.90;;;3.47;;
7316;SDS011;3699;51.462;6.696;2022-11-03T06:33:51;9.83;;;4.27;;
7316;SDS011;3699;51.462;6.696;2022-11-03T06:36:21;15.33;;;3.73;;
7316;SDS011;3699;51.462;6.696;2022-11-03T06:38:50;12.43;;;3.60;;
7316;SDS011;3699;51.462;6.696;2022-11-03T06:41:23;8.40;;;3.37;;
7316;SDS011;3699;51.462;6.696;2022-11-03T06:43:51;9.80;;;3.63;;
7316;SDS011;3699;51.462;6.696;2022-11-03T06:46:19;10.27;;;3.57;;
7316;SDS011;3699;51.462;6.696;2022-11-03T06:48:48;11.63;;;3.30;;
7316;SDS011;3699;51.462;6.696;2022-11-03T06:51:15;9.17;;;3.70;;
7316;SDS011;3699;51.462;6.696;2022-11-03T06:53:45;8.03;;;2.90;;
7316;SDS011;3699;51.462;6.696;2022-11-03T06:56:13;7.47;;;3.10;;
7316;SDS011;3699;51.462;6.696;2022-11-03T06:58:42;10.80;;;3.60;;
7316;SDS011;3699;51.462;6.696;2022-11-03T07:01:11;11.00;;;4.40;;
7316;SDS011;3699;51.462;6.696;2022-11-03T07:03:40;10.50;;;3.00;;
7316;SDS011;3699;51.462;6.696;2022-11-03T07:06:12;10.73;;;3.87;;
7316;SDS011;3699;51.462;6.696;2022-11-03T07:08:45;7.73;;;3.33;;
7316;SDS011;3699;51.462;6.696;2022-11-03T07:11:15;12.73;;;3.23;;
7316;SDS011;3699;51.462;6.696;2022-11-03T07:13:45;12.03;;;3.50;;
7316;SDS011;3699;51.462;6.696;2022-11-03T07:16:15;6.27;;;3.47;;
7316;SDS011;3699;51.462;6.696;2022-11-03T07:18:46;13.30;;;4.43;;
7316;SDS011;3699;51.462;6.696;2022-11-03T07:21:23;15.17;;;4.57;;
7316;SDS011;3699;51.462;6.696;2022-11-03T07:23:56;13.37;;;4.03;;
7316;SDS011;3699;51.462;6.696;2022-11-03T07:26:24;7.57;;;3.67;;
7316;SDS011;3699;51.462;6.696;2022-11-03T07:28:53;16.53;;;4.43;;
7316;SDS011;3699;51.462;6.696;2022-11-03T07:31:21;7.90;;;3.93;;
7316;SDS011;3699;51.462;6.696;2022-11-03T07:33:51;11.60;;;3.97;;
7316;SDS011;3699;51.462;6.696;2022-11-03T07:36:21;10.57;;;3.40;;
7316;SDS011;3699;51.462;6.696;2022-11-03T07:38:50;15.23;;;4.47;;
7316;SDS011;3699;51.462;6.696;2022-11-03T07:41:18;14.03;;;4.43;;
7316;SDS011;3699;51.462;6.696;2022-11-03T07:43:48;6.43;;;3.13;;
7316;SDS011;3699;51.462;6.696;2022-11-03T07:46:21;11.53;;;3.57;;
7316;SDS011;3699;51.462;6.696;2022-11-03T07:48:49;12.37;;;3.87;;
7316;SDS011;3699;51.462;6.696;2022-11-03T07:51:19;14.63;;;4.43;;
7316;SDS011;3699;51.462;6.696;2022-11-03T07:53:48;10.27;;;4.20;;
7316;SDS011;3699;51.462;6.696;2022-11-03T07:56:17;10.53;;;4.13;;
7316;SDS011;3699;51.462;6.696;2022-11-03T07:58:45;17.43;;;4.00;;
7316;SDS011;3699;51.462;6.696;2022-11-03T08:01:21;11.93;;;3.50;;
7316;SDS011;3699;51.462;6.696;2022-11-03T08:03:50;10.60;;;3.30;;
7316;SDS011;3699;51.462;6.696;2022-11-03T08:06:17;12.30;;;3.73;;
7316;SDS011;3699;51.462;6.696;2022-11-03T08:08:44;12.57;;;3.60;;
7316;SDS011;3699;51.462;6.696;2022-11-03T08:11:11;12.40;;;4.63;;
7316;SDS011;3699;51.462;6.696;2022-11-03T08:13:37;7.83;;;3.50;;
7316;SDS011;3699;51.462;6.696;2022-11-03T08:16:04;11.50;;;3.53;;
7316;SDS011;3699;51.462;6.696;2022-11-03T08:18:33;7.87;;;3.60;;
7316;SDS011;3699;51.462;6.696;2022-11-03T08:21:01;13.93;;;4.90;;
7316;SDS011;3699;51.462;6.696;2022-11-03T08:23:27;10.27;;;3.50;;
7316;SDS011;3699;51.462;6.696;2022-11-03T08:25:54;9.70;;;3.90;;
7316;SDS011;3699;51.462;6.696;2022-11-03T08:28:21;10.10;;;4.37;;
7316;SDS011;3699;51.462;6.696;2022-11-03T08:30:48;12.47;;;4.50;;
7316;SDS011;3699;51.462;6.696;2022-11-03T08:33:15;17.07;;;4.53;;
7316;SDS011;3699;51.462;6.696;2022-11-03T08:35:43;11.87;;;4.00;;
7316;SDS011;3699;51.462;6.696;2022-11-03T08:38:10;18.43;;;5.77;;
7316;SDS011;3699;51.462;6.696;2022-11-03T08:40:36;7.23;;;3.87;;
7316;SDS011;3699;51.462;6.696;2022-11-03T08:43:03;9.60;;;5.00;;
7316;SDS011;3699;51.462;6.696;2022-11-03T08:45:30;12.80;;;4.13;;
7316;SDS011;3699;51.462;6.696;2022-11-03T08:47:57;13.70;;;4.47;;
7316;SDS011;3699;51.462;6.696;2022-11-03T08:50:24;16.57;;;5.13;;
7316;SDS011;3699;51.462;6.696;2022-11-03T08:52:52;13.63;;;4.13;;
7316;SDS011;3699;51.462;6.696;2022-11-03T08:55:18;15.03;;;4.67;;
7316;SDS011;3699;51.462;6.696;2022-11-03T08:57:46;8.73;;;4.10;;
7316;SDS011;3699;51.462;6.696;2022-11-03T09:00:13;16.90;;;5.07;;
7316;SDS011;3699;51.462;6.696;2022-11-03T09:02:41;11.37;;;4.37;;
7316;SDS011;3699;51.462;6.696;2022-11-03T09:05:08;11.23;;;3.80;;
7316;SDS011;3699;51.462;6.696;2022-11-03T09:07:36;13.00;;;4.93;;
7316;SDS011;3699;51.462;6.696;2022-11-03T09:10:06;12.20;;;4.03;;
7316;SDS011;3699;51.462;6.696;2022-11-03T09:12:34;13.87;;;4.57;;
7316;SDS011;3699;51.462;6.696;2022-11-03T09:15:01;11.40;;;4.23;;
7316;SDS011;3699;51.462;6.696;2022-11-03T09:17:28;11.00;;;3.90;;
7316;SDS011;3699;51.462;6.696;2022-11-03T09:19:54;10.70;;;3.97;;
7316;SDS011;3699;51.462;6.696;2022-11-03T09:22:21;13.27;;;4.57;;
7316;SDS011;3699;51.462;6.696;2022-11-03T09:24:48;8.93;;;4.10;;
7316;SDS011;3699;51.462;6.696;2022-11-03T09:27:16;11.57;;;4.20;;
7316;SDS011;3699;51.462;6.696;2022-11-03T09:29:43;11.73;;;3.60;;
7316;SDS011;3699;51.462;6.696;2022-11-03T09:32:09;8.00;;;4.10;;
7316;SDS011;3699;51.462;6.696;2022-11-03T09:34:36;17.27;;;4.57;;
7316;SDS011;3699;51.462;6.696;2022-11-03T09:37:03;8.67;;;4.43;;
7316;SDS011;3699;51.462;6.696;2022-11-03T09:39:30;14.33;;;3.73;;
7316;SDS011;3699;51.462;6.696;2022-11-03T09:41:57;8.93;;;3.83;;
7316;SDS011;3699;51.462;6.696;2022-11-03T09:44:26;8.63;;;3.40;;
7316;SDS011;3699;51.462;6.696;2022-11-03T09:46:52;11.90;;;3.87;;
7316;SDS011;3699;51.462;6.696;2022-11-03T09:49:19;7.73;;;3.30;;
7316;SDS011;3699;51.462;6.696;2022-11-03T09:51:47;11.30;;;4.23;;
7316;SDS011;3699;51.462;6.696;2022-11-03T09:54:14;11.73;;;4.30;;
7316;SDS011;3699;51.462;6.696;2022-11-03T09:56:42;10.03;;;4.00;;
7316;SDS011;3699;51.462;6.696;2022-11-03T09:59:14;12.10;;;4.30;;
7316;SDS011;3699;51.462;6.696;2022-11-03T10:01:44;12.93;;;4.00;;
7316;SDS011;3699;51.462;6.696;2022-11-03T10:04:14;11.73;;;3.90;;
7316;SDS011;3699;51.462;6.696;2022-11-03T10:06:41;8.90;;;3.60;;
7316;SDS011;3699;51.462;6.696;2022-11-03T10:09:09;9.67;;;3.20;;
7316;SDS011;3699;51.462;6.696;2022-11-03T10:11:42;9.87;;;3.50;;
7316;SDS011;3699;51.462;6.696;2022-11-03T10:14:10;12.57;;;5.90;;
7316;SDS011;3699;51.462;6.696;2022-11-03T10:16:39;14.03;;;3.90;;
7316;SDS011;3699;51.462;6.696;2022-11-03T10:19:09;7.53;;;3.20;;
7316;SDS011;3699;51.462;6.696;2022-11-03T10:21:38;8.93;;;3.53;;
7316;SDS011;3699;51.462;6.696;2022-11-03T10:24:08;13.80;;;3.27;;
7316;SDS011;3699;51.462;6.696;2022-11-03T10:26:42;12.90;;;3.60;;
7316;SDS011;3699;51.462;6.696;2022-11-03T10:29:15;8.60;;;2.93;;
7316;SDS011;3699;51.462;6.696;2022-11-03T10:31:45;9.30;;;3.30;;
7316;SDS011;3699;51.462;6.696;2022-11-03T10:34:23;8.70;;;3.10;;
7316;SDS011;3699;51.462;6.696;2022-11-03T10:39:44;11.73;;;3.97;;
7316;SDS011;3699;51.462;6.696;2022-11-03T10:42:21;14.50;;;4.33;;
7316;SDS011;3699;51.462;6.696;2022-11-03T10:44:50;13.80;;;4.93;;
7316;SDS011;3699;51.462;6.696;2022-11-03T10:47:22;8.87;;;4.07;;
7316;SDS011;3699;51.462;6.696;2022-11-03T10:49:52;8.23;;;3.97;;
7316;SDS011;3699;51.462;6.696;2022-11-03T10:52:20;9.13;;;3.40;;
7316;SDS011;3699;51.462;6.696;2022-11-03T10:54:49;12.17;;;4.63;;
7316;SDS011;3699;51.462;6.696;2022-11-03T10:57:19;10.93;;;3.20;;
7316;SDS011;3699;51.462;6.696;2022-11-03T10:59:47;13.17;;;4.20;;
7316;SDS011;3699;51.462;6.696;2022-11-03T11:02:17;6.90;;;3.03;;
7316;SDS011;3699;51.462;6.696;2022-11-03T11:04:46;11.77;;;2.70;;
7316;SDS011;3699;51.462;6.696;2022-11-03T11:07:18;6.30;;;2.93;;
7316;SDS011;3699;51.462;6.696;2022-11-03T11:09:48;5.93;;;3.20;;
7316;SDS011;3699;51.462;6.696;2022-11-03T11:12:16;9.40;;;2.77;;
7316;SDS011;3699;51.462;6.696;2022-11-03T11:14:51;11.37;;;3.67;;
7316;SDS011;3699;51.462;6.696;2022-11-03T11:20:17;6.10;;;3.30;;
7316;SDS011;3699;51.462;6.696;2022-11-03T11:22:56;4.90;;;2.70;;
7316;SDS011;3699;51.462;6.696;2022-11-03T11:26:28;11.63;;;3.13;;
7316;SDS011;3699;51.462;6.696;2022-11-03T11:35:17;6.70;;;2.50;;
7316;SDS011;3699;51.462;6.696;2022-11-03T11:41:10;6.33;;;2.63;;
7316;SDS011;3699;51.462;6.696;2022-11-03T11:43:37;6.90;;;2.87;;
7316;SDS011;3699;51.462;6.696;2022-11-03T11:46:23;11.87;;;3.07;;
7316;SDS011;3699;51.462;6.696;2022-11-03T11:51:49;9.10;;;2.90;;
7316;SDS011;3699;51.462;6.696;2022-11-03T11:54:17;6.43;;;2.40;;
7316;SDS011;3699;51.462;6.696;2022-11-03T11:56:47;8.33;;;2.27;;
7316;SDS011;3699;51.462;6.696;2022-11-03T11:59:14;8.57;;;2.33;;
7316;SDS011;3699;51.462;6.696;2022-11-03T12:01:43;5.73;;;2.23;;
7316;SDS011;3699;51.462;6.696;2022-11-03T12:04:16;7.03;;;2.23;;
7316;SDS011;3699;51.462;6.696;2022-11-03T12:06:46;11.03;;;3.33;;
7316;SDS011;3699;51.462;6.696;2022-11-03T12:09:14;9.20;;;2.13;;
7316;SDS011;3699;51.462;6.696;2022-11-03T12:11:44;6.17;;;2.20;;
7316;SDS011;3699;51.462;6.696;2022-11-03T12:14:30;4.63;;;2.40;;
7316;SDS011;3699;51.462;6.696;2022-11-03T12:17:30;7.30;;;2.30;;
7316;SDS011;3699;51.462;6.696;2022-11-03T12:19:58;4.30;;;2.10;;
7316;SDS011;3699;51.462;6.696;2022-11-03T12:22:37;8.27;;;2.53;;
7316;SDS011;3699;51.462;6.696;2022-11-03T12:25:05;4.03;;;2.10;;
7316;SDS011;3699;51.462;6.696;2022-11-03T12:27:59;8.07;;;2.30;;
7316;SDS011;3699;51.462;6.696;2022-11-03T12:30:28;6.77;;;2.27;;
7316;SDS011;3699;51.462;6.696;2022-11-03T12:32:54;8.23;;;3.30;;
7316;SDS011;3699;51.462;6.696;2022-11-03T12:35:21;7.50;;;2.30;;
7316;SDS011;3699;51.462;6.696;2022-11-03T12:37:48;8.03;;;3.67;;
7316;SDS011;3699;51.462;6.696;2022-11-03T12:40:15;3.87;;;2.10;;
7316;SDS011;3699;51.462;6.696;2022-11-03T12:42:42;4.97;;;2.30;;
7316;SDS011;3699;51.462;6.696;2022-11-03T12:45:09;6.40;;;2.30;;
7316;SDS011;3699;51.462;6.696;2022-11-03T12:47:38;4.03;;;2.30;;
7316;SDS011;3699;51.462;6.696;2022-11-03T12:50:05;5.57;;;2.37;;
7316;SDS011;3699;51.462;6.696;2022-11-03T12:52:32;4.00;;;1.93;;
7316;SDS011;3699;51.462;6.696;2022-11-03T12:54:59;4.20;;;2.30;;
7316;SDS011;3699;51.462;6.696;2022-11-03T12:57:26;5.00;;;2.10;;
7316;SDS011;3699;51.462;6.696;2022-11-03T12:59:52;5.27;;;2.40;;
7316;SDS011;3699;51.462;6.696;2022-11-03T13:02:19;3.60;;;2.40;;
7316;SDS011;3699;51.462;6.696;2022-11-03T13:04:47;9.33;;;2.40;;
7316;SDS011;3699;51.462;6.696;2022-11-03T13:07:14;6.47;;;2.30;;
7316;SDS011;3699;51.462;6.696;2022-11-03T13:09:41;11.70;;;3.43;;
7316;SDS011;3699;51.462;6.696;2022-11-03T13:12:08;10.13;;;3.63;;
7316;SDS011;3699;51.462;6.696;2022-11-03T13:14:54;4.27;;;2.40;;
7316;SDS011;3699;51.462;6.696;2022-11-03T13:17:21;4.87;;;3.20;;
7316;SDS011;3699;51.462;6.696;2022-11-03T13:19:49;7.10;;;3.10;;
7316;SDS011;3699;51.462;6.696;2022-11-03T13:22:16;5.63;;;2.43;;
7316;SDS011;3699;51.462;6.696;2022-11-03T13:24:42;8.97;;;2.73;;
7316;SDS011;3699;51.462;6.696;2022-11-03T13:27:09;5.33;;;2.27;;
7316;SDS011;3699;51.462;6.696;2022-11-03T13:29:36;4.80;;;2.40;;
7316;SDS011;3699;51.462;6.696;2022-11-03T13:32:03;9.33;;;2.30;;
7316;SDS011;3699;51.462;6.696;2022-11-03T13:34:30;5.43;;;2.20;;
7316;SDS011;3699;51.462;6.696;2022-11-03T13:36:59;4.80;;;2.47;;
7316;SDS011;3699;51.462;6.696;2022-11-03T13:39:25;3.60;;;2.40;;
7316;SDS011;3699;51.462;6.696;2022-11-03T13:41:52;8.80;;;2.87;;
7316;SDS011;3699;51.462;6.696;2022-11-03T13:44:19;7.80;;;2.50;;
7316;SDS011;3699;51.462;6.696;2022-11-03T13:46:45;5.10;;;2.40;;
7316;SDS011;3699;51.462;6.696;2022-11-03T13:49:12;6.07;;;2.43;;
7316;SDS011;3699;51.462;6.696;2022-11-03T13:51:39;3.67;;;2.10;;
7316;SDS011;3699;51.462;6.696;2022-11-03T13:54:07;9.53;;;3.00;;
7316;SDS011;3699;51.462;6.696;2022-11-03T13:56:34;8.40;;;3.33;;
7316;SDS011;3699;51.462;6.696;2022-11-03T13:59:01;5.50;;;2.73;;
7316;SDS011;3699;51.462;6.696;2022-11-03T14:01:28;6.77;;;2.47;;
7316;SDS011;3699;51.462;6.696;2022-11-03T14:03:55;5.90;;;2.40;;
7316;SDS011;3699;51.462;6.696;2022-11-03T14:06:22;7.07;;;2.63;;
7316;SDS011;3699;51.462;6.696;2022-11-03T14:08:49;3.90;;;2.20;;
7316;SDS011;3699;51.462;6.696;2022-11-03T14:11:17;4.47;;;2.30;;
7316;SDS011;3699;51.462;6.696;2022-11-03T14:14:01;5.57;;;2.20;;
7316;SDS011;3699;51.462;6.696;2022-11-03T14:16:27;5.93;;;2.30;;
7316;SDS011;3699;51.462;6.696;2022-11-03T14:18:54;5.20;;;2.50;;
7316;SDS011;3699;51.462;6.696;2022-11-03T14:21:21;5.67;;;2.50;;
7316;SDS011;3699;51.462;6.696;2022-11-03T14:23:48;7.50;;;2.80;;
7316;SDS011;3699;51.462;6.696;2022-11-03T14:26:14;7.60;;;3.13;;
7316;SDS011;3699;51.462;6.696;2022-11-03T14:28:43;5.00;;;2.70;;
7316;SDS011;3699;51.462;6.696;2022-11-03T14:31:09;4.00;;;3.27;;
7316;SDS011;3699;51.462;6.696;2022-11-03T14:33:36;3.70;;;2.40;;
7316;SDS011;3699;51.462;6.696;2022-11-03T14:36:03;7.77;;;4.10;;
7316;SDS011;3699;51.462;6.696;2022-11-03T14:38:29;6.73;;;2.87;;
7316;SDS011;3699;51.462;6.696;2022-11-03T14:40:56;7.90;;;2.70;;
7316;SDS011;3699;51.462;6.696;2022-11-03T14:43:42;6.20;;;2.53;;
7316;SDS011;3699;51.462;6.696;2022-11-03T14:46:08;5.20;;;2.30;;
7316;SDS011;3699;51.462;6.696;2022-11-03T14:48:35;3.70;;;2.73;;
7316;SDS011;3699;51.462;6.696;2022-11-03T14:51:02;9.47;;;2.80;;
7316;SDS011;3699;51.462;6.696;2022-11-03T14:53:29;8.60;;;3.53;;
7316;SDS011;3699;51.462;6.696;2022-11-03T14:55:57;6.93;;;3.17;;
7316;SDS011;3699;51.462;6.696;2022-11-03T14:58:23;8.63;;;2.33;;
7316;SDS011;3699;51.462;6.696;2022-11-03T15:00:52;9.70;;;3.03;;
7316;SDS011;3699;51.462;6.696;2022-11-03T15:03:18;6.97;;;2.87;;
7316;SDS011;3699;51.462;6.696;2022-11-03T15:05:45;8.93;;;3.33;;
7316;SDS011;3699;51.462;6.696;2022-11-03T15:08:12;5.83;;;3.40;;
7316;SDS011;3699;51.462;6.696;2022-11-03T15:10:40;8.80;;;3.40;;
7316;SDS011;3699;51.462;6.696;2022-11-03T15:13:07;7.47;;;3.70;;
7316;SDS011;3699;51.462;6.696;2022-11-03T15:15:34;6.57;;;3.30;;
7316;SDS011;3699;51.462;6.696;2022-11-03T15:18:03;8.63;;;4.90;;
7316;SDS011;3699;51.462;6.696;2022-11-03T15:20:29;9.37;;;3.87;;
7316;SDS011;3699;51.462;6.696;2022-11-03T15:22:59;5.00;;;3.40;;
7316;SDS011;3699;51.462;6.696;2022-11-03T15:25:26;13.60;;;5.03;;
7316;SDS011;3699;51.462;6.696;2022-11-03T15:27:53;5.03;;;3.47;;
7316;SDS011;3699;51.462;6.696;2022-11-03T15:30:19;7.20;;;3.67;;
7316;SDS011;3699;51.462;6.696;2022-11-03T15:32:47;7.07;;;3.73;;
7316;SDS011;3699;51.462;6.696;2022-11-03T15:35:15;11.67;;;3.80;;
7316;SDS011;3699;51.462;6.696;2022-11-03T15:37:42;9.50;;;4.13;;
7316;SDS011;3699;51.462;6.696;2022-11-03T15:40:09;8.43;;;3.83;;